createdAt,value
2023-02-11T00:01:31.879Z,-0.51
2023-02-11T00:04:04.884Z,-0.60
2023-02-11T00:06:35.588Z,-0.61
2023-02-11T00:09:07.139Z,-0.71
2023-02-11T00:11:41.184Z,-0.79
2023-02-11T00:14:10.376Z,-0.73
2023-02-11T00:16:37.189Z,-0.81
2023-02-11T00:19:06.371Z,-0.73
2023-02-11T00:21:34.203Z,-0.72
2023-02-11T00:24:02.312Z,-0.82
2023-02-11T00:26:32.664Z,-0.80
2023-02-11T00:29:02.285Z,-0.82
2023-02-11T00:31:34.229Z,-0.90
2023-02-11T00:34:03.443Z,-0.84
2023-02-11T00:36:30.753Z,-0.88
2023-02-11T00:38:58.735Z,-0.87
2023-02-11T00:41:26.229Z,-0.95
2023-02-11T00:43:57.982Z,-1.05
2023-02-11T00:46:28.012Z,-1.00
2023-02-11T00:48:57.890Z,-1.00
2023-02-11T00:51:26.349Z,-1.02
2023-02-11T00:53:56.183Z,-1.06
2023-02-11T00:56:26.152Z,-1.01
2023-02-11T00:58:56.149Z,-1.08
2023-02-11T01:01:25.666Z,-1.05
2023-02-11T01:03:52.489Z,-1.18
2023-02-11T01:06:26.357Z,-1.11
2023-02-11T01:08:53.032Z,-1.23
2023-02-11T01:11:21.710Z,-1.20
2023-02-11T01:13:53.241Z,-1.22
2023-02-11T01:16:20.514Z,-1.18
2023-02-11T01:19:05.472Z,-1.33
2023-02-11T01:21:32.309Z,-1.27
2023-02-11T01:23:59.071Z,-1.23
2023-02-11T01:26:25.704Z,-1.10
2023-02-11T01:28:54.604Z,-1.11
2023-02-11T01:31:26.326Z,-1.15
2023-02-11T01:33:55.402Z,-1.19
2023-02-11T01:36:22.098Z,-1.12
2023-02-11T01:38:51.140Z,-1.17
2023-02-11T01:41:20.906Z,-1.12
2023-02-11T01:43:50.298Z,-1.14
2023-02-11T01:46:35.382Z,-1.12
2023-02-11T01:49:17.363Z,-1.17
2023-02-11T01:52:04.569Z,-1.20
2023-02-11T01:54:53.821Z,-1.22
2023-02-11T01:57:25.261Z,-1.24
2023-02-11T02:00:10.986Z,-1.22
2023-02-11T02:02:58.504Z,-1.24
2023-02-11T02:05:34.430Z,-1.24
2023-02-11T02:08:04.387Z,-1.25
2023-02-11T02:10:36.786Z,-1.30
2023-02-11T02:13:03.998Z,-1.32
2023-02-11T02:15:34.450Z,-1.31
2023-02-11T02:18:34.497Z,-1.32
2023-02-11T02:21:30.838Z,-1.39
2023-02-11T02:24:56.632Z,-1.37
2023-02-11T02:27:47.607Z,-1.49
2023-02-11T02:31:00.682Z,-1.45
2023-02-11T02:34:00.700Z,-1.47
2023-02-11T02:36:36.707Z,-1.56
2023-02-11T02:39:11.159Z,-1.58
2023-02-11T02:41:41.680Z,-1.56
2023-02-11T02:44:14.287Z,-1.65
2023-02-11T02:46:41.109Z,-1.72
2023-02-11T02:49:13.734Z,-1.67
2023-02-11T02:52:08.354Z,-1.68
2023-02-11T02:54:53.273Z,-1.71
2023-02-11T02:57:50.426Z,-1.69
2023-02-11T03:00:44.307Z,-1.71
2023-02-11T03:03:23.764Z,-1.70
2023-02-11T03:06:05.641Z,-1.68
2023-02-11T03:08:44.366Z,-1.83
2023-02-11T03:11:12.579Z,-1.72
2023-02-11T03:13:43.327Z,-1.74
2023-02-11T03:16:21.158Z,-1.72
2023-02-11T03:18:56.524Z,-1.77
2023-02-11T03:21:26.585Z,-1.72
2023-02-11T03:23:58.065Z,-1.65
2023-02-11T03:26:31.153Z,-1.72
2023-02-11T03:29:19.587Z,-1.65
2023-02-11T03:31:49.156Z,-1.62
2023-02-11T03:34:23.958Z,-1.70
2023-02-11T03:37:10.191Z,-1.57
2023-02-11T03:39:45.112Z,-1.68
2023-02-11T03:42:17.113Z,-1.56
2023-02-11T03:44:54.769Z,-1.63
2023-02-11T03:47:26.166Z,-1.50
2023-02-11T03:49:56.891Z,-1.58
2023-02-11T03:52:26.283Z,-1.56
2023-02-11T03:54:56.421Z,-1.48
2023-02-11T03:57:26.218Z,-1.56
2023-02-11T03:59:58.448Z,-1.49
2023-02-11T04:02:29.033Z,-1.61
2023-02-11T04:05:03.108Z,-1.57
2023-02-11T04:07:29.802Z,-1.53
2023-02-11T04:09:56.464Z,-1.48
2023-02-11T04:12:25.795Z,-1.44
2023-02-11T04:14:52.554Z,-1.48
2023-02-11T04:17:21.563Z,-1.59
2023-02-11T04:19:48.227Z,-1.53
2023-02-11T04:22:17.162Z,-1.56
2023-02-11T04:24:44.223Z,-1.61
2023-02-11T04:27:15.174Z,-1.50
2023-02-11T04:29:41.857Z,-1.56
2023-02-11T04:32:14.287Z,-1.61
2023-02-11T04:34:43.236Z,-1.53
2023-02-11T04:37:09.976Z,-1.51
2023-02-11T04:39:42.352Z,-1.50
2023-02-11T04:42:13.392Z,-1.57
2023-02-11T04:44:42.528Z,-1.63
2023-02-11T04:47:13.514Z,-1.61
2023-02-11T04:49:40.180Z,-1.65
2023-02-11T04:52:07.123Z,-1.84
2023-02-11T04:54:36.090Z,-1.64
2023-02-11T04:57:02.976Z,-1.64
2023-02-11T04:59:29.850Z,-1.68
2023-02-11T05:01:59.202Z,-1.83
2023-02-11T05:04:30.570Z,-1.70
2023-02-11T05:06:58.699Z,-1.72
2023-02-11T05:09:25.587Z,-1.72
2023-02-11T05:11:52.377Z,-1.56
2023-02-11T05:14:19.080Z,-1.73
2023-02-11T05:16:45.812Z,-1.65
2023-02-11T05:19:12.566Z,-1.53
2023-02-11T05:21:40.098Z,-1.64
2023-02-11T05:24:11.257Z,-1.44
2023-02-11T05:26:40.142Z,-1.51
2023-02-11T05:29:06.800Z,-1.72
2023-02-11T05:31:35.700Z,-1.82
2023-02-11T05:34:04.754Z,-1.39
2023-02-11T05:36:34.393Z,-1.37
2023-02-11T05:39:03.680Z,-1.39
2023-02-11T05:41:30.359Z,-1.58
2023-02-11T05:43:59.278Z,-1.85
2023-02-11T05:46:28.235Z,-1.43
2023-02-11T05:48:56.683Z,-1.42
2023-02-11T05:51:25.354Z,-1.39
2023-02-11T05:53:54.464Z,-1.53
2023-02-11T05:56:21.087Z,-1.48
2023-02-11T05:58:50.277Z,-1.34
2023-02-11T06:01:17.064Z,-1.30
2023-02-11T06:03:44.143Z,-1.44
2023-02-11T06:06:16.346Z,-1.49
2023-02-11T06:08:43.115Z,-1.37
2023-02-11T06:11:09.829Z,-1.40
2023-02-11T06:13:36.695Z,-1.35
2023-02-11T06:16:03.810Z,-1.36
2023-02-11T06:18:30.625Z,-1.31
2023-02-11T06:20:57.334Z,-1.19
2023-02-11T06:23:28.536Z,-1.15
2023-02-11T06:26:02.310Z,-1.16
2023-02-11T06:28:31.308Z,-0.98
2023-02-11T06:31:09.867Z,-0.74
2023-02-11T06:33:36.650Z,-0.79
2023-02-11T06:36:05.415Z,-0.80
2023-02-11T06:38:32.599Z,-0.69
2023-02-11T06:41:01.741Z,-0.59
2023-02-11T06:43:28.373Z,-0.81
2023-02-11T06:45:59.624Z,-0.65
2023-02-11T06:48:26.295Z,-0.72
2023-02-11T06:50:52.987Z,-0.64
2023-02-11T06:53:19.674Z,-0.59
2023-02-11T06:55:46.344Z,-0.61
2023-02-11T06:58:13.068Z,-0.48
2023-02-11T07:00:40.270Z,-0.57
2023-02-11T07:03:06.977Z,-0.52
2023-02-11T07:05:34.366Z,-0.32
2023-02-11T07:08:01.216Z,-0.60
2023-02-11T07:10:32.648Z,-0.26
2023-02-11T07:12:59.285Z,-0.27
2023-02-11T07:15:28.291Z,-0.33
2023-02-11T07:17:54.952Z,-0.38
2023-02-11T07:20:24.102Z,-0.15
2023-02-11T07:22:50.789Z,-0.44
2023-02-11T07:25:19.966Z,-0.20
2023-02-11T07:27:46.760Z,-0.33
2023-02-11T07:30:15.917Z,-0.26
2023-02-11T07:32:42.642Z,-0.06
2023-02-11T07:35:09.514Z,-0.16
2023-02-11T07:37:36.560Z,-0.07
2023-02-11T07:40:07.715Z,0.04
2023-02-11T07:42:35.628Z,0.08
2023-02-11T07:45:02.752Z,-0.03
2023-02-11T07:47:31.787Z,-0.06
2023-02-11T07:50:01.589Z,-0.03
2023-02-11T07:52:31.346Z,0.03
2023-02-11T07:54:58.309Z,0.20
2023-02-11T07:57:25.365Z,0.09
2023-02-11T07:59:53.525Z,0.22
2023-02-11T08:02:20.409Z,0.34
2023-02-11T08:04:47.386Z,0.35
2023-02-11T08:07:18.234Z,0.25
2023-02-11T08:09:45.582Z,0.56
2023-02-11T08:12:12.555Z,0.31
2023-02-11T08:14:53.148Z,0.64
2023-02-11T08:17:20.098Z,0.59
2023-02-11T08:19:46.808Z,0.65
2023-02-11T08:22:13.819Z,0.63
2023-02-11T08:24:43.328Z,0.75
2023-02-11T08:27:10.281Z,0.55
2023-02-11T08:29:37.296Z,0.72
2023-02-11T08:32:04.266Z,0.99
2023-02-11T08:34:31.084Z,0.98
2023-02-11T08:36:57.930Z,1.08
2023-02-11T08:39:45.413Z,1.02
2023-02-11T08:42:15.481Z,1.21
2023-02-11T08:44:43.858Z,1.32
2023-02-11T08:47:10.654Z,1.22
2023-02-11T08:49:46.961Z,1.39
2023-02-11T08:52:13.763Z,1.36
2023-02-11T08:54:40.443Z,1.56
2023-02-11T08:57:07.546Z,1.62
2023-02-11T08:59:34.687Z,1.85
2023-02-11T09:02:03.894Z,1.75
2023-02-11T09:04:30.607Z,1.69
2023-02-11T09:07:00.979Z,2.13
2023-02-11T09:09:28.059Z,2.08
2023-02-11T09:11:57.382Z,2.16
2023-02-11T09:14:24.941Z,2.09
2023-02-11T09:16:53.234Z,2.48
2023-02-11T09:19:30.629Z,2.36
2023-02-11T09:22:07.713Z,2.63
2023-02-11T09:24:52.997Z,2.01
2023-02-11T09:27:37.471Z,2.40
2023-02-11T09:30:25.200Z,2.36
2023-02-11T09:33:09.542Z,2.22
2023-02-11T09:35:41.023Z,2.91
2023-02-11T09:38:39.305Z,3.02
2023-02-11T09:41:08.795Z,3.17
2023-02-11T09:43:45.428Z,3.16
2023-02-11T09:46:23.661Z,3.18
2023-02-11T09:48:54.068Z,3.27
2023-02-11T09:51:36.492Z,3.30
2023-02-11T09:54:34.831Z,3.44
2023-02-11T09:57:19.635Z,3.45
2023-02-11T09:59:56.699Z,3.57
2023-02-11T10:02:59.014Z,3.67
2023-02-11T10:05:42.526Z,3.74
2023-02-11T10:08:17.114Z,3.83
2023-02-11T10:10:54.905Z,3.90
2023-02-11T10:13:47.888Z,3.96
2023-02-11T10:16:45.868Z,4.01
2023-02-11T10:19:21.417Z,4.02
2023-02-11T10:21:51.840Z,4.10
2023-02-11T10:24:20.334Z,4.12
2023-02-11T10:26:47.906Z,4.21
2023-02-11T10:29:37.038Z,4.22
2023-02-11T10:32:37.710Z,4.26
2023-02-11T10:35:15.686Z,4.30
2023-02-11T10:37:44.625Z,4.35
2023-02-11T10:40:24.658Z,4.36
2023-02-11T10:42:55.951Z,4.46
2023-02-11T10:45:32.720Z,4.50
2023-02-11T10:48:25.333Z,4.52
2023-02-11T10:51:08.448Z,4.62
2023-02-11T10:53:37.202Z,4.66
2023-02-11T10:56:11.272Z,4.70
2023-02-11T10:58:54.346Z,4.75
2023-02-11T11:01:37.866Z,4.79
2023-02-11T11:04:34.073Z,4.84
2023-02-11T11:07:21.270Z,4.89
2023-02-11T11:10:07.339Z,4.95
2023-02-11T11:12:46.894Z,5.00
2023-02-11T11:15:16.818Z,5.01
2023-02-11T11:17:47.130Z,5.01
2023-02-11T11:20:29.449Z,5.08
2023-02-11T11:23:23.260Z,5.09
2023-02-11T11:26:12.805Z,5.17
2023-02-11T11:28:50.112Z,5.20
2023-02-11T11:31:25.317Z,5.20
2023-02-11T11:33:58.338Z,5.29
2023-02-11T11:36:35.173Z,5.28
2023-02-11T11:39:15.326Z,5.33
2023-02-11T11:41:53.904Z,5.38
2023-02-11T11:44:31.639Z,5.43
2023-02-11T11:47:20.816Z,5.46
2023-02-11T11:50:12.612Z,5.51
2023-02-11T11:53:00.198Z,5.56
2023-02-11T11:55:42.270Z,5.57
2023-02-11T11:58:23.377Z,5.61
2023-02-11T12:01:05.429Z,5.56
2023-02-11T12:03:35.119Z,5.57
2023-02-11T12:06:31.615Z,5.55
2023-02-11T12:09:07.954Z,5.60
2023-02-11T12:11:52.741Z,5.55
2023-02-11T12:14:44.159Z,5.62
2023-02-11T12:17:19.941Z,5.66
2023-02-11T12:19:56.409Z,5.70
2023-02-11T12:22:34.248Z,5.72
2023-02-11T12:25:06.270Z,5.73
2023-02-11T12:28:14.012Z,5.75
2023-02-11T12:30:55.912Z,5.79
2023-02-11T12:33:49.489Z,5.84
2023-02-11T12:36:30.373Z,5.87
2023-02-11T12:39:32.082Z,5.90
2023-02-11T12:42:34.388Z,5.91
2023-02-11T12:45:16.002Z,5.96
2023-02-11T12:48:04.908Z,5.97
2023-02-11T12:51:00.822Z,5.97
2023-02-11T12:54:07.778Z,6.00
2023-02-11T12:56:59.344Z,6.00
2023-02-11T12:59:57.578Z,6.06
2023-02-11T13:02:29.029Z,6.04
2023-02-11T13:05:08.367Z,6.08
2023-02-11T13:07:41.910Z,6.11
2023-02-11T13:10:13.841Z,6.11
2023-02-11T13:13:04.263Z,6.12
2023-02-11T13:15:36.481Z,6.10
2023-02-11T13:18:40.516Z,6.15
2023-02-11T13:21:16.483Z,6.16
2023-02-11T13:24:05.530Z,6.18
2023-02-11T13:27:03.100Z,6.19
2023-02-11T13:30:14.574Z,6.22
2023-02-11T13:32:56.779Z,6.26
2023-02-11T13:35:29.816Z,6.26
2023-02-11T13:38:26.282Z,6.34
2023-02-11T13:41:05.447Z,6.37
2023-02-11T13:43:37.524Z,6.37
2023-02-11T13:46:17.256Z,6.37
2023-02-11T13:48:52.719Z,6.49
2023-02-11T13:51:37.750Z,6.48
2023-02-11T13:54:09.730Z,6.51
2023-02-11T13:56:40.126Z,6.56
2023-02-11T13:59:27.582Z,6.61
2023-02-11T14:02:17.937Z,6.65
2023-02-11T14:05:23.399Z,6.69
2023-02-11T14:08:27.648Z,6.72
2023-02-11T14:11:10.998Z,6.74
2023-02-11T14:14:03.614Z,6.80
2023-02-11T14:16:38.425Z,6.80
2023-02-11T14:19:06.792Z,6.82
2023-02-11T14:21:39.060Z,6.86
2023-02-11T14:24:07.165Z,6.87
2023-02-11T14:27:00.703Z,6.90
2023-02-11T14:29:51.330Z,6.90
2023-02-11T14:32:26.977Z,6.94
2023-02-11T14:35:16.036Z,6.90
2023-02-11T14:38:00.856Z,6.96
2023-02-11T14:40:31.745Z,6.93
2023-02-11T14:43:06.401Z,6.93
2023-02-11T14:45:39.141Z,6.96
2023-02-11T14:48:20.179Z,6.95
2023-02-11T14:50:52.321Z,6.97
2023-02-11T14:53:22.678Z,6.94
2023-02-11T14:55:54.201Z,6.96
2023-02-11T14:58:26.529Z,6.97
2023-02-11T15:01:22.714Z,6.97
2023-02-11T15:03:50.020Z,6.96
2023-02-11T15:06:20.185Z,6.97
2023-02-11T15:09:01.362Z,6.94
2023-02-11T15:11:37.198Z,6.98
2023-02-11T15:14:16.645Z,6.92
2023-02-11T15:16:45.568Z,6.96
2023-02-11T15:19:26.810Z,6.98
2023-02-11T15:21:54.208Z,6.96
2023-02-11T15:24:25.659Z,6.95
2023-02-11T15:27:18.618Z,6.96
2023-02-11T15:29:50.734Z,6.87
2023-02-11T15:32:25.471Z,6.91
2023-02-11T15:34:58.505Z,6.88
2023-02-11T15:37:32.457Z,6.89
2023-02-11T15:40:18.991Z,6.87
2023-02-11T15:43:06.511Z,6.84
2023-02-11T15:45:36.096Z,6.80
2023-02-11T15:48:09.217Z,6.77
2023-02-11T15:50:52.488Z,6.76
2023-02-11T15:53:25.199Z,6.77
2023-02-11T15:55:55.113Z,6.74
2023-02-11T15:58:23.398Z,6.74
2023-02-11T16:00:59.891Z,6.72
2023-02-11T16:03:33.106Z,6.69
2023-02-11T16:06:24.522Z,6.70
2023-02-11T16:09:04.546Z,6.66
2023-02-11T16:11:39.584Z,6.66
2023-02-11T16:14:39.341Z,6.64
2023-02-11T16:17:36.065Z,6.62
2023-02-11T16:20:06.706Z,6.61
2023-02-11T16:22:38.158Z,6.57
2023-02-11T16:25:05.838Z,6.60
2023-02-11T16:27:41.763Z,6.57
2023-02-11T16:30:38.382Z,6.58
2023-02-11T16:33:05.638Z,6.59
2023-02-11T16:35:37.434Z,6.55
2023-02-11T16:38:08.949Z,6.57
2023-02-11T16:40:44.476Z,6.53
2023-02-11T16:43:13.446Z,6.50
2023-02-11T16:45:44.789Z,6.50
2023-02-11T16:48:19.401Z,6.50
2023-02-11T16:51:01.391Z,6.52
2023-02-11T16:53:30.387Z,6.50
2023-02-11T16:55:57.098Z,6.49
2023-02-11T16:58:28.544Z,6.42
2023-02-11T17:01:00.797Z,6.40
2023-02-11T17:03:31.419Z,6.32
2023-02-11T17:05:58.356Z,6.29
2023-02-11T17:08:27.846Z,6.23
2023-02-11T17:10:54.695Z,6.24
2023-02-11T17:13:21.375Z,6.23
2023-02-11T17:15:53.170Z,6.21
2023-02-11T17:18:20.007Z,6.19
2023-02-11T17:20:49.151Z,6.11
2023-02-11T17:23:18.555Z,6.01
2023-02-11T17:25:57.949Z,5.97
2023-02-11T17:28:34.820Z,5.88
2023-02-11T17:31:09.900Z,5.85
2023-02-11T17:33:40.948Z,5.82
2023-02-11T17:36:09.084Z,5.77
2023-02-11T17:38:37.368Z,5.80
2023-02-11T17:41:05.122Z,5.81
2023-02-11T17:43:38.956Z,5.82
2023-02-11T17:46:07.931Z,5.79
2023-02-11T17:48:38.575Z,5.76
2023-02-11T17:51:08.777Z,5.78
2023-02-11T17:53:36.089Z,5.76
2023-02-11T17:56:07.301Z,5.77
2023-02-11T17:58:36.286Z,5.72
2023-02-11T18:01:05.860Z,5.78
2023-02-11T18:03:37.632Z,5.73
2023-02-11T18:06:09.704Z,5.77
2023-02-11T18:08:39.103Z,5.77
2023-02-11T18:11:18.100Z,5.73
2023-02-11T18:13:52.742Z,5.66
2023-02-11T18:16:19.482Z,5.67
2023-02-11T18:18:46.118Z,5.62
2023-02-11T18:21:17.512Z,5.65
2023-02-11T18:23:44.726Z,5.62
2023-02-11T18:26:15.436Z,5.63
2023-02-11T18:28:45.949Z,5.51
2023-02-11T18:31:14.310Z,5.51
2023-02-11T18:33:44.097Z,5.48
2023-02-11T18:36:15.316Z,5.48
2023-02-11T18:38:48.855Z,5.45
2023-02-11T18:41:18.069Z,5.43
2023-02-11T18:43:47.280Z,5.51
2023-02-11T18:46:19.236Z,5.46
2023-02-11T18:48:45.960Z,5.51
2023-02-11T18:51:18.414Z,5.47
2023-02-11T18:53:45.780Z,5.44
2023-02-11T18:56:19.084Z,5.39
2023-02-11T18:58:53.498Z,5.38
2023-02-11T19:01:27.821Z,5.35
2023-02-11T19:03:58.453Z,5.35
2023-02-11T19:06:30.353Z,5.27
2023-02-11T19:09:04.216Z,5.20
2023-02-11T19:11:50.393Z,5.37
2023-02-11T19:14:27.640Z,5.38
2023-02-11T19:16:58.551Z,5.38
2023-02-11T19:19:34.374Z,5.40
2023-02-11T19:22:10.555Z,5.39
2023-02-11T19:24:38.020Z,5.43
2023-02-11T19:27:07.189Z,5.37
2023-02-11T19:29:35.292Z,5.38
2023-02-11T19:32:06.036Z,5.43
2023-02-11T19:34:41.047Z,5.40
2023-02-11T19:37:13.045Z,5.43
2023-02-11T19:39:45.087Z,5.44
2023-02-11T19:42:12.654Z,5.44
2023-02-11T19:44:41.814Z,5.39
2023-02-11T19:47:13.632Z,5.39
2023-02-11T19:49:45.361Z,5.38
2023-02-11T19:52:14.523Z,5.32
2023-02-11T19:54:43.571Z,5.31
2023-02-11T19:57:10.220Z,5.35
2023-02-11T19:59:39.248Z,5.21
2023-02-11T20:02:05.941Z,5.28
2023-02-11T20:04:37.229Z,5.26
2023-02-11T20:07:06.342Z,5.25
2023-02-11T20:09:33.042Z,5.22
2023-02-11T20:12:04.362Z,5.19
2023-02-11T20:14:34.020Z,5.21
2023-02-11T20:17:02.977Z,5.23
2023-02-11T20:19:30.744Z,5.22
2023-02-11T20:22:02.466Z,5.21
2023-02-11T20:24:34.640Z,5.20
2023-02-11T20:27:08.474Z,5.18
2023-02-11T20:29:40.650Z,5.21
2023-02-11T20:32:13.640Z,5.20
2023-02-11T20:34:44.919Z,5.25
2023-02-11T20:37:11.658Z,5.19
2023-02-11T20:39:42.918Z,5.30
2023-02-11T20:42:12.769Z,5.26
2023-02-11T20:44:39.465Z,5.29
2023-02-11T20:47:06.193Z,5.16
2023-02-11T20:49:33.049Z,5.30
2023-02-11T20:51:59.741Z,5.26
2023-02-11T20:54:31.039Z,5.30
2023-02-11T20:57:02.435Z,5.30
2023-02-11T20:59:33.868Z,5.29
2023-02-11T21:02:01.698Z,5.25
2023-02-11T21:04:30.553Z,5.29
2023-02-11T21:06:59.945Z,5.29
2023-02-11T21:09:31.408Z,5.30
2023-02-11T21:11:58.375Z,5.31
2023-02-11T21:14:26.847Z,5.31
2023-02-11T21:16:56.560Z,5.31
2023-02-11T21:19:28.349Z,5.34
2023-02-11T21:22:01.870Z,5.37
2023-02-11T21:24:36.119Z,5.21
2023-02-11T21:27:03.133Z,5.34
2023-02-11T21:29:29.752Z,5.26
2023-02-11T21:31:58.651Z,5.28
2023-02-11T21:34:25.357Z,5.24
2023-02-11T21:36:56.862Z,5.19
2023-02-11T21:39:26.489Z,5.17
2023-02-11T21:41:56.026Z,5.19
2023-02-11T21:44:24.918Z,5.10
2023-02-11T21:46:51.677Z,5.26
2023-02-11T21:49:21.500Z,5.26
2023-02-11T21:51:50.448Z,5.23
2023-02-11T21:54:18.842Z,5.23
2023-02-11T21:56:54.400Z,5.32
2023-02-11T21:59:23.715Z,5.22
2023-02-11T22:01:53.482Z,5.36
2023-02-11T22:04:25.918Z,5.38
2023-02-11T22:06:57.500Z,5.41
2023-02-11T22:09:26.335Z,5.38
2023-02-11T22:11:56.033Z,5.35
2023-02-11T22:14:25.091Z,5.45
2023-02-11T22:16:51.823Z,5.45
2023-02-11T22:19:19.001Z,5.47
2023-02-11T22:21:48.024Z,5.45
2023-02-11T22:24:17.211Z,5.44
2023-02-11T22:26:46.907Z,5.52
2023-02-11T22:29:13.593Z,5.44
2023-02-11T22:31:45.314Z,5.50
2023-02-11T22:34:11.952Z,5.49
2023-02-11T22:36:40.841Z,5.53
2023-02-11T22:39:11.028Z,5.56
2023-02-11T22:41:40.583Z,5.54
2023-02-11T22:44:07.857Z,5.40
2023-02-11T22:46:35.109Z,5.56
2023-02-11T22:49:04.572Z,5.50
2023-02-11T22:51:36.557Z,5.51
2023-02-11T22:54:05.896Z,5.57
2023-02-11T22:56:35.659Z,5.57
2023-02-11T22:59:08.547Z,5.57
2023-02-11T23:01:37.640Z,5.48
2023-02-11T23:04:06.381Z,5.54
2023-02-11T23:06:38.226Z,5.57
2023-02-11T23:09:12.331Z,5.56
2023-02-11T23:11:41.946Z,5.58
2023-02-11T23:14:11.990Z,5.59
2023-02-11T23:16:41.381Z,5.56
2023-02-11T23:19:12.376Z,5.58
2023-02-11T23:21:43.911Z,5.57
2023-02-11T23:24:13.009Z,5.57
2023-02-11T23:26:41.071Z,5.53
2023-02-11T23:29:08.027Z,5.44
2023-02-11T23:31:40.501Z,5.54
2023-02-11T23:34:10.644Z,5.52
2023-02-11T23:36:40.076Z,5.45
2023-02-11T23:39:06.710Z,5.46
2023-02-11T23:41:33.341Z,5.45
2023-02-11T23:44:00.176Z,5.45
2023-02-11T23:46:27.884Z,5.45
2023-02-11T23:48:56.931Z,5.43
2023-02-11T23:51:23.864Z,5.44
2023-02-11T23:53:56.114Z,5.38
2023-02-11T23:56:27.762Z,5.40
2023-02-11T23:58:59.352Z,5.36
